Caarapo, Brazil
Current Conditions -  °F | °C
As of 11:00 AM on Thursday 27 Nov 2014 (Local Time) from SBPP Reporting Station
Scattered Clouds Scattered Clouds  
Wind Chill: 82°   Ceiling: Unl
Heat Index: 86°   Visibility: 6mi
Dew Point: 70°   Wind: 9mph
Humidity: 66%   Direction: 180°S
Pressure: 29.97"   Gusts: NA
Location:  22.63°S, 54.82°W
Report Text: SBPP 271400Z 18008KT 9999 SCT015 28/21 Q1015
Loading
Personal Weather Stations






























Interactive Weather Map New forecast layout! Learn more

10-Day Weather Forecast

Advertisements
Track Severe Weather on mobile